CPA270 EHAM-VHHH
Flight info
| Callsign | CPA270 |
|---|---|
| Flight time | N/A |
| Altitude | 33000 |
| Route | ARNEM L620 HMM DCT NOMKA DCT OMELO DCT ODLIV DCT OMIFU DCT SAGAN DCT ETNOG DCT ROMAG DCT UDROS/N0490F350 UM859 KARDE UL851 TBN UM11 REBLO M11 LUSAL N199 RASAM L88 METKA B476 DARVA/K0909F350 T898 SUDAR/K0898F370 T898 OGOLI N193 SR L163 TISIB L141 KAMUD/K0896S1130 W186 SADAN Y1 NUPNI/K0896S1190 Y1 OMBON W245 OVRAL B330 KWE W181 DUDIT A599 POU R473 SIERA |
| Aircraft | A35K/H-SDE2E3GHIJ3J4J5LM1ORWXY/LB1D1 |
Departure
| Time | N/A |
|---|---|
| Airport | Amsterdam Airport Schiphol (EHAM) |
Arrival
| Time | 2026-05-06 09:35 |
|---|---|
| Airport | Hong Kong International Airport (VHHH) |
| Time | Latitude | Longitude | Altitude | Speed | Heading |
|---|---|---|---|---|---|
| 2026-05-06 07:51 | 29.67312 | 104.82035 | 38813 ft | 495 kts | 181° |
| 2026-05-06 07:51 | 29.65051 | 104.82284 | 38811 ft | 494 kts | 181° |
| 2026-05-06 07:52 | 29.58200 | 104.83037 | 38813 ft | 495 kts | 181° |
| 2026-05-06 07:52 | 29.51369 | 104.83785 | 38799 ft | 495 kts | 181° |
| 2026-05-06 07:53 | 29.44506 | 104.84537 | 38805 ft | 495 kts | 181° |
| 2026-05-06 07:53 | 29.37647 | 104.85290 | 38802 ft | 495 kts | 181° |
| 2026-05-06 07:54 | 29.30855 | 104.87123 | 38801 ft | 510 kts | 165° |
| 2026-05-06 07:54 | 29.24265 | 104.90251 | 38783 ft | 515 kts | 162° |
| 2026-05-06 07:55 | 29.17715 | 104.93602 | 38786 ft | 516 kts | 162° |
| 2026-05-06 07:55 | 29.11169 | 104.96959 | 38786 ft | 516 kts | 162° |
| 2026-05-06 07:56 | 29.04615 | 105.00293 | 38772 ft | 515 kts | 162° |
| 2026-05-06 07:56 | 28.98014 | 105.03622 | 38772 ft | 515 kts | 162° |
| 2026-05-06 07:57 | 28.91462 | 105.06918 | 38757 ft | 514 kts | 162° |
| 2026-05-06 07:57 | 28.84908 | 105.10194 | 38744 ft | 513 kts | 162° |
| 2026-05-06 07:58 | 28.78361 | 105.13458 | 38744 ft | 513 kts | 162° |
| 2026-05-06 07:58 | 28.71908 | 105.17012 | 38737 ft | 518 kts | 158° |
| 2026-05-06 07:59 | 28.65587 | 105.20976 | 38722 ft | 519 kts | 157° |
| 2026-05-06 07:59 | 28.59252 | 105.24933 | 38732 ft | 519 kts | 158° |
| 2026-05-06 08:00 | 28.52891 | 105.28815 | 38729 ft | 519 kts | 158° |
| 2026-05-06 08:00 | 28.46557 | 105.32633 | 38735 ft | 519 kts | 159° |
| 2026-05-06 08:01 | 28.40121 | 105.36504 | 38732 ft | 519 kts | 159° |
| 2026-05-06 08:01 | 28.33709 | 105.40358 | 38741 ft | 518 kts | 159° |
| 2026-05-06 08:02 | 28.27342 | 105.44184 | 38748 ft | 518 kts | 159° |
| 2026-05-06 08:02 | 28.20976 | 105.48003 | 38762 ft | 517 kts | 159° |
| 2026-05-06 08:03 | 28.14614 | 105.51812 | 38772 ft | 517 kts | 159° |
| 2026-05-06 08:03 | 28.08235 | 105.55586 | 38774 ft | 514 kts | 162° |
| 2026-05-06 08:04 | 28.01548 | 105.57945 | 38782 ft | 498 kts | 177° |
| 2026-05-06 08:04 | 27.94725 | 105.59171 | 38789 ft | 495 kts | 180° |
| 2026-05-06 08:05 | 27.87847 | 105.60215 | 38805 ft | 495 kts | 180° |
| 2026-05-06 08:05 | 27.81074 | 105.61499 | 38802 ft | 504 kts | 172° |
| 2026-05-06 08:06 | 27.74522 | 105.64595 | 38774 ft | 516 kts | 159° |
| 2026-05-06 08:06 | 27.68126 | 105.68442 | 38811 ft | 517 kts | 157° |
| 2026-05-06 08:07 | 27.61757 | 105.72157 | 38821 ft | 514 kts | 160° |
| 2026-05-06 08:07 | 27.55294 | 105.75597 | 38818 ft | 513 kts | 161° |
| 2026-05-06 08:08 | 27.48836 | 105.79014 | 38821 ft | 512 kts | 161° |
| 2026-05-06 08:08 | 27.42349 | 105.82487 | 38821 ft | 513 kts | 160° |
| 2026-05-06 08:09 | 27.35902 | 105.85962 | 38815 ft | 514 kts | 160° |
| 2026-05-06 08:09 | 27.29460 | 105.89432 | 38815 ft | 514 kts | 160° |
| 2026-05-06 08:10 | 27.23005 | 105.92901 | 38804 ft | 514 kts | 160° |
| 2026-05-06 08:10 | 27.16541 | 105.96369 | 38804 ft | 514 kts | 160° |
| 2026-05-06 08:11 | 27.10079 | 105.99832 | 38782 ft | 514 kts | 160° |
| 2026-05-06 08:11 | 27.03985 | 106.04171 | 38798 ft | 528 kts | 143° |
| 2026-05-06 08:12 | 26.99074 | 106.10376 | 38779 ft | 535 kts | 131° |
| 2026-05-06 08:12 | 26.94550 | 106.17095 | 38778 ft | 537 kts | 130° |
| 2026-05-06 08:13 | 26.90107 | 106.23812 | 38783 ft | 537 kts | 130° |
| 2026-05-06 08:13 | 26.85630 | 106.30501 | 38783 ft | 536 kts | 130° |
| 2026-05-06 08:14 | 26.81125 | 106.37169 | 38796 ft | 537 kts | 131° |
| 2026-05-06 08:14 | 26.76596 | 106.43848 | 38798 ft | 539 kts | 131° |
| 2026-05-06 08:15 | 26.72053 | 106.50541 | 38825 ft | 540 kts | 131° |
| 2026-05-06 08:15 | 26.67510 | 106.57228 | 38837 ft | 540 kts | 131° |
| 2026-05-06 08:16 | 26.62966 | 106.63906 | 38852 ft | 540 kts | 131° |
| 2026-05-06 08:16 | 26.58420 | 106.70578 | 38854 ft | 540 kts | 131° |
| 2026-05-06 08:17 | 26.53868 | 106.77244 | 38852 ft | 538 kts | 131° |
| 2026-05-06 08:17 | 26.48809 | 106.83390 | 38860 ft | 533 kts | 139° |
| 2026-05-06 08:18 | 26.43586 | 106.89177 | 38860 ft | 532 kts | 140° |
| 2026-05-06 08:18 | 26.38265 | 106.94979 | 38880 ft | 531 kts | 140° |
| 2026-05-06 08:19 | 26.32979 | 107.00739 | 38877 ft | 531 kts | 140° |
| 2026-05-06 08:19 | 26.27739 | 107.06468 | 38893 ft | 531 kts | 139° |
| 2026-05-06 08:20 | 26.23339 | 107.11319 | 38893 ft | 531 kts | 139° |
| 2026-05-06 08:20 | 26.18084 | 107.17102 | 38890 ft | 531 kts | 140° |
| 2026-05-06 08:21 | 26.12816 | 107.22882 | 38891 ft | 531 kts | 140° |
| 2026-05-06 08:21 | 26.07553 | 107.28644 | 38889 ft | 531 kts | 139° |
| 2026-05-06 08:22 | 26.02281 | 107.34407 | 38885 ft | 531 kts | 139° |
| 2026-05-06 08:22 | 25.97004 | 107.40169 | 38886 ft | 531 kts | 139° |
| 2026-05-06 08:23 | 25.91697 | 107.45956 | 38883 ft | 532 kts | 139° |
| 2026-05-06 08:23 | 25.86409 | 107.51712 | 38877 ft | 532 kts | 139° |
| 2026-05-06 08:24 | 25.81119 | 107.57463 | 38877 ft | 532 kts | 140° |
| 2026-05-06 08:24 | 25.75828 | 107.63211 | 38867 ft | 532 kts | 139° |
| 2026-05-06 08:25 | 25.70550 | 107.68944 | 38873 ft | 530 kts | 139° |
| 2026-05-06 08:25 | 25.65302 | 107.74687 | 38882 ft | 530 kts | 138° |
| 2026-05-06 08:26 | 25.60022 | 107.80473 | 38873 ft | 530 kts | 138° |
| 2026-05-06 08:26 | 25.54770 | 107.86216 | 38867 ft | 530 kts | 139° |
| 2026-05-06 08:27 | 25.49444 | 107.91849 | 38864 ft | 527 kts | 144° |
| 2026-05-06 08:27 | 25.43176 | 107.95905 | 38852 ft | 513 kts | 165° |
| 2026-05-06 08:28 | 25.36284 | 107.97562 | 38858 ft | 505 kts | 177° |
| 2026-05-06 08:28 | 25.29301 | 107.98433 | 38861 ft | 505 kts | 179° |
| 2026-05-06 08:29 | 25.22312 | 107.99208 | 38847 ft | 505 kts | 179° |
| 2026-05-06 08:29 | 25.15315 | 108.00021 | 38848 ft | 505 kts | 179° |
| 2026-05-06 08:30 | 25.08365 | 108.00861 | 38844 ft | 506 kts | 179° |
| 2026-05-06 08:30 | 25.01327 | 108.01721 | 38831 ft | 506 kts | 179° |
| 2026-05-06 08:31 | 24.94334 | 108.02573 | 38829 ft | 506 kts | 179° |
| 2026-05-06 08:31 | 24.87383 | 108.03416 | 38821 ft | 506 kts | 179° |
| 2026-05-06 08:32 | 24.80390 | 108.04264 | 38815 ft | 506 kts | 179° |
| 2026-05-06 08:32 | 24.73354 | 108.05116 | 38814 ft | 505 kts | 179° |
| 2026-05-06 08:33 | 24.66357 | 108.05962 | 38814 ft | 506 kts | 179° |
| 2026-05-06 08:33 | 24.59365 | 108.06807 | 38815 ft | 506 kts | 179° |
| 2026-05-06 08:34 | 24.48866 | 108.08083 | 38815 ft | 506 kts | 179° |
| 2026-05-06 08:35 | 24.41865 | 108.08934 | 38815 ft | 506 kts | 178° |
| 2026-05-06 08:35 | 24.34810 | 108.09789 | 38822 ft | 506 kts | 179° |
| 2026-05-06 08:36 | 24.27805 | 108.10637 | 38829 ft | 506 kts | 179° |
| 2026-05-06 08:36 | 24.20798 | 108.11486 | 38826 ft | 506 kts | 179° |
| 2026-05-06 08:37 | 24.13790 | 108.12337 | 38831 ft | 506 kts | 179° |
| 2026-05-06 08:37 | 24.06783 | 108.13187 | 38830 ft | 506 kts | 179° |
| 2026-05-06 08:38 | 23.99733 | 108.14039 | 38830 ft | 506 kts | 178° |
| 2026-05-06 08:38 | 23.92778 | 108.14998 | 38829 ft | 510 kts | 173° |
| 2026-05-06 08:39 | 23.86069 | 108.17691 | 38836 ft | 522 kts | 153° |
| 2026-05-06 08:39 | 23.83043 | 108.20003 | 38830 ft | 527 kts | 142° |
| 2026-05-06 08:39 | 23.80471 | 108.22868 | 38834 ft | 531 kts | 130° |
| 2026-05-06 08:39 | 23.78413 | 108.26225 | 38830 ft | 534 kts | 119° |
| 2026-05-06 08:40 | 23.76949 | 108.29957 | 38840 ft | 536 kts | 107° |
| 2026-05-06 08:40 | 23.76136 | 108.33919 | 38842 ft | 536 kts | 96° |
| 2026-05-06 08:40 | 23.75996 | 108.37976 | 38831 ft | 534 kts | 84° |
| 2026-05-06 08:40 | 23.76531 | 108.41973 | 38824 ft | 531 kts | 73° |
| 2026-05-06 08:41 | 23.77693 | 108.45784 | 38840 ft | 528 kts | 64° |
| 2026-05-06 08:41 | 23.79531 | 108.53572 | 38830 ft | 535 kts | 83° |
| 2026-05-06 08:42 | 23.79553 | 108.61713 | 38835 ft | 537 kts | 92° |
| 2026-05-06 08:42 | 23.79107 | 108.69863 | 38838 ft | 538 kts | 93° |
| 2026-05-06 08:43 | 23.78574 | 108.78070 | 38835 ft | 538 kts | 93° |
| 2026-05-06 08:43 | 23.78064 | 108.86213 | 38841 ft | 537 kts | 93° |
| 2026-05-06 08:44 | 23.77570 | 108.94350 | 38839 ft | 537 kts | 93° |
| 2026-05-06 08:44 | 23.77079 | 109.02485 | 38838 ft | 537 kts | 93° |
| 2026-05-06 08:45 | 23.76585 | 109.10614 | 38838 ft | 537 kts | 93° |
| 2026-05-06 08:45 | 23.75521 | 109.18674 | 38838 ft | 536 kts | 101° |
| 2026-05-06 08:46 | 23.73973 | 109.26635 | 38836 ft | 536 kts | 103° |
| 2026-05-06 08:46 | 23.72626 | 109.33229 | 38835 ft | 535 kts | 103° |
| 2026-05-06 08:47 | 23.70992 | 109.41216 | 38835 ft | 535 kts | 103° |
| 2026-05-06 08:47 | 23.69378 | 109.49148 | 38835 ft | 535 kts | 103° |
| 2026-05-06 08:48 | 23.67769 | 109.57070 | 38839 ft | 534 kts | 103° |
| 2026-05-06 08:48 | 23.66161 | 109.64979 | 38838 ft | 534 kts | 103° |
| 2026-05-06 08:49 | 23.64535 | 109.72875 | 38841 ft | 534 kts | 103° |
| 2026-05-06 08:49 | 23.62895 | 109.80780 | 38852 ft | 534 kts | 103° |
| 2026-05-06 08:50 | 23.61255 | 109.88677 | 38850 ft | 533 kts | 103° |
| 2026-05-06 08:50 | 23.59618 | 109.96567 | 38848 ft | 533 kts | 103° |
| 2026-05-06 08:51 | 23.57977 | 110.04441 | 38857 ft | 533 kts | 103° |
| 2026-05-06 08:51 | 23.56329 | 110.12327 | 38857 ft | 533 kts | 103° |
| 2026-05-06 08:52 | 23.54680 | 110.20199 | 38857 ft | 532 kts | 103° |
| 2026-05-06 08:52 | 23.53029 | 110.28063 | 38851 ft | 532 kts | 103° |
| 2026-05-06 08:53 | 23.51366 | 110.35963 | 38848 ft | 532 kts | 103° |
| 2026-05-06 08:53 | 23.49746 | 110.43828 | 38845 ft | 532 kts | 102° |
| 2026-05-06 08:54 | 23.48145 | 110.51755 | 38845 ft | 531 kts | 102° |
| 2026-05-06 08:54 | 23.46550 | 110.59618 | 38845 ft | 531 kts | 102° |
| 2026-05-06 08:55 | 23.44947 | 110.67469 | 38849 ft | 531 kts | 102° |
| 2026-05-06 08:55 | 23.43338 | 110.75317 | 38851 ft | 531 kts | 103° |
| 2026-05-06 08:56 | 23.41687 | 110.83155 | 38852 ft | 531 kts | 103° |
| 2026-05-06 08:56 | 23.40021 | 110.90985 | 38856 ft | 531 kts | 103° |
| 2026-05-06 08:57 | 23.38357 | 110.98813 | 38856 ft | 531 kts | 103° |
| 2026-05-06 08:57 | 23.36694 | 111.06641 | 38859 ft | 531 kts | 103° |
| 2026-05-06 08:58 | 23.35028 | 111.14468 | 38865 ft | 530 kts | 103° |
| 2026-05-06 08:58 | 23.33403 | 111.22288 | 38866 ft | 530 kts | 102° |
| 2026-05-06 08:59 | 23.31811 | 111.30135 | 38869 ft | 530 kts | 102° |
| 2026-05-06 08:59 | 23.30214 | 111.37973 | 38872 ft | 530 kts | 102° |
| 2026-05-06 09:00 | 23.28607 | 111.45799 | 38875 ft | 530 kts | 102° |
| 2026-05-06 09:00 | 23.26993 | 111.53626 | 38876 ft | 530 kts | 102° |
| 2026-05-06 09:01 | 23.25353 | 111.61446 | 38883 ft | 530 kts | 103° |
| 2026-05-06 09:01 | 23.23689 | 111.69257 | 38880 ft | 530 kts | 103° |
| 2026-05-06 09:02 | 23.22026 | 111.77061 | 38881 ft | 530 kts | 103° |
| 2026-05-06 09:02 | 23.20364 | 111.84881 | 38886 ft | 530 kts | 103° |
| 2026-05-06 09:03 | 23.18737 | 111.92704 | 38885 ft | 530 kts | 102° |
| 2026-05-06 09:03 | 23.17116 | 112.00522 | 38896 ft | 530 kts | 102° |
| 2026-05-06 09:04 | 23.15486 | 112.08348 | 38900 ft | 530 kts | 103° |
| 2026-05-06 09:04 | 23.13850 | 112.16165 | 38896 ft | 530 kts | 102° |
| 2026-05-06 09:05 | 23.12211 | 112.23973 | 38893 ft | 529 kts | 102° |
| 2026-05-06 09:05 | 23.10572 | 112.31762 | 38894 ft | 529 kts | 102° |
| 2026-05-06 09:06 | 23.08929 | 112.39549 | 38900 ft | 529 kts | 102° |
| 2026-05-06 09:06 | 23.07323 | 112.47348 | 38896 ft | 529 kts | 99° |
| 2026-05-06 09:07 | 23.06538 | 112.55271 | 38900 ft | 527 kts | 94° |
| 2026-05-06 09:07 | 23.05989 | 112.63214 | 38901 ft | 527 kts | 93° |
| 2026-05-06 09:08 | 23.05476 | 112.71154 | 38903 ft | 527 kts | 93° |
| 2026-05-06 09:08 | 23.04949 | 112.79089 | 38906 ft | 527 kts | 93° |
| 2026-05-06 09:09 | 23.04406 | 112.87039 | 38907 ft | 528 kts | 93° |
| 2026-05-06 09:09 | 23.03856 | 112.94979 | 38909 ft | 528 kts | 93° |
| 2026-05-06 09:10 | 23.03301 | 113.02928 | 38868 ft | 528 kts | 93° |
| 2026-05-06 09:10 | 23.02944 | 113.06892 | 38646 ft | 528 kts | 98° |
| 2026-05-06 09:10 | 23.02124 | 113.10785 | 38401 ft | 529 kts | 108° |
| 2026-05-06 09:10 | 23.00713 | 113.14516 | 38127 ft | 528 kts | 118° |
| 2026-05-06 09:11 | 22.98742 | 113.17869 | 37860 ft | 527 kts | 129° |
| 2026-05-06 09:11 | 22.96258 | 113.20773 | 37502 ft | 521 kts | 140° |
| 2026-05-06 09:11 | 22.93337 | 113.23140 | 36935 ft | 514 kts | 152° |
| 2026-05-06 09:11 | 22.90198 | 113.24823 | 36324 ft | 508 kts | 162° |
| 2026-05-06 09:12 | 22.86782 | 113.25896 | 35701 ft | 502 kts | 172° |
| 2026-05-06 09:12 | 22.83332 | 113.26377 | 35061 ft | 499 kts | 176° |
| 2026-05-06 09:12 | 22.79906 | 113.27042 | 34395 ft | 502 kts | 169° |
| 2026-05-06 09:12 | 22.76517 | 113.28021 | 33625 ft | 505 kts | 167° |
| 2026-05-06 09:13 | 22.74183 | 113.28750 | 33067 ft | 506 kts | 166° |
| 2026-05-06 09:13 | 22.70813 | 113.29857 | 32312 ft | 507 kts | 165° |
| 2026-05-06 09:13 | 22.67400 | 113.31022 | 31542 ft | 508 kts | 165° |
| 2026-05-06 09:13 | 22.64022 | 113.32195 | 30753 ft | 509 kts | 165° |
| 2026-05-06 09:14 | 22.60593 | 113.33395 | 29898 ft | 512 kts | 165° |
| 2026-05-06 09:14 | 22.57161 | 113.34596 | 29094 ft | 509 kts | 165° |
| 2026-05-06 09:14 | 22.53790 | 113.35769 | 28447 ft | 505 kts | 165° |
| 2026-05-06 09:14 | 22.50429 | 113.36934 | 27816 ft | 500 kts | 165° |
| 2026-05-06 09:15 | 22.47134 | 113.38073 | 27208 ft | 495 kts | 165° |
| 2026-05-06 09:15 | 22.43822 | 113.39214 | 26602 ft | 491 kts | 165° |
| 2026-05-06 09:15 | 22.40581 | 113.40330 | 25998 ft | 487 kts | 165° |
| 2026-05-06 09:15 | 22.37367 | 113.41437 | 25400 ft | 483 kts | 165° |
| 2026-05-06 09:16 | 22.34094 | 113.42564 | 24783 ft | 479 kts | 166° |
| 2026-05-06 09:16 | 22.30929 | 113.43653 | 24199 ft | 476 kts | 165° |
| 2026-05-06 09:16 | 22.27739 | 113.44749 | 23608 ft | 473 kts | 165° |
| 2026-05-06 09:16 | 22.24573 | 113.45837 | 22948 ft | 469 kts | 165° |
| 2026-05-06 09:17 | 22.21517 | 113.46890 | 22352 ft | 464 kts | 165° |
| 2026-05-06 09:17 | 22.18461 | 113.47991 | 21756 ft | 461 kts | 164° |
| 2026-05-06 09:17 | 22.15402 | 113.49122 | 21156 ft | 456 kts | 164° |
| 2026-05-06 09:17 | 22.12416 | 113.50226 | 20630 ft | 450 kts | 163° |
| 2026-05-06 09:18 | 22.09514 | 113.51296 | 20484 ft | 434 kts | 164° |
| 2026-05-06 09:18 | 22.06712 | 113.52328 | 20357 ft | 418 kts | 164° |
| 2026-05-06 09:18 | 22.04005 | 113.53322 | 20191 ft | 404 kts | 164° |
| 2026-05-06 09:18 | 22.01356 | 113.54293 | 20014 ft | 391 kts | 164° |
| 2026-05-06 09:19 | 21.98811 | 113.55224 | 19669 ft | 385 kts | 164° |
| 2026-05-06 09:19 | 21.96297 | 113.56223 | 19197 ft | 384 kts | 160° |
| 2026-05-06 09:19 | 21.93853 | 113.57372 | 18761 ft | 382 kts | 159° |
| 2026-05-06 09:19 | 21.91417 | 113.58534 | 18331 ft | 379 kts | 159° |
| 2026-05-06 09:20 | 21.89011 | 113.59667 | 17865 ft | 376 kts | 159° |
| 2026-05-06 09:20 | 21.86622 | 113.60781 | 17442 ft | 372 kts | 159° |
| 2026-05-06 09:20 | 21.84253 | 113.61879 | 17025 ft | 369 kts | 159° |
| 2026-05-06 09:20 | 21.81868 | 113.62980 | 16603 ft | 366 kts | 159° |
| 2026-05-06 09:21 | 21.79537 | 113.64054 | 16194 ft | 363 kts | 159° |
| 2026-05-06 09:21 | 21.77218 | 113.65121 | 15788 ft | 361 kts | 159° |
| 2026-05-06 09:21 | 21.74857 | 113.66205 | 15374 ft | 358 kts | 159° |
| 2026-05-06 09:21 | 21.72569 | 113.67256 | 14958 ft | 356 kts | 159° |
| 2026-05-06 09:22 | 21.70290 | 113.68304 | 14559 ft | 354 kts | 159° |
| 2026-05-06 09:22 | 21.68114 | 113.69620 | 14151 ft | 356 kts | 143° |
| 2026-05-06 09:22 | 21.66505 | 113.71624 | 13739 ft | 357 kts | 119° |
| 2026-05-06 09:22 | 21.65752 | 113.74139 | 13293 ft | 354 kts | 95° |
| 2026-05-06 09:23 | 21.65964 | 113.76756 | 12980 ft | 356 kts | 72° |
| 2026-05-06 09:23 | 21.67083 | 113.79124 | 12661 ft | 357 kts | 49° |
| 2026-05-06 09:23 | 21.68282 | 113.80368 | 12408 ft | 351 kts | 32° |
| 2026-05-06 09:23 | 21.70456 | 113.81459 | 12174 ft | 333 kts | 11° |
| 2026-05-06 09:24 | 21.72727 | 113.81650 | 11940 ft | 317 kts | 353° |
| 2026-05-06 09:24 | 21.74917 | 113.81664 | 11548 ft | 315 kts | 5° |
| 2026-05-06 09:24 | 21.76984 | 113.82478 | 11206 ft | 315 kts | 31° |
| 2026-05-06 09:24 | 21.78694 | 113.83939 | 10875 ft | 313 kts | 40° |
| 2026-05-06 09:25 | 21.80325 | 113.85541 | 10543 ft | 313 kts | 41° |
| 2026-05-06 09:25 | 21.81913 | 113.87117 | 10225 ft | 309 kts | 41° |
| 2026-05-06 09:25 | 21.83564 | 113.88586 | 9837 ft | 308 kts | 30° |
| 2026-05-06 09:25 | 21.85547 | 113.89338 | 9388 ft | 300 kts | 2° |
| 2026-05-06 09:26 | 21.87576 | 113.89072 | 9050 ft | 293 kts | 338° |
| 2026-05-06 09:26 | 21.89454 | 113.88230 | 8748 ft | 292 kts | 332° |
| 2026-05-06 09:26 | 21.91288 | 113.87295 | 8463 ft | 292 kts | 332° |
| 2026-05-06 09:26 | 21.93118 | 113.86364 | 8159 ft | 290 kts | 332° |
| 2026-05-06 09:27 | 21.94942 | 113.85444 | 7862 ft | 288 kts | 332° |
| 2026-05-06 09:27 | 21.96819 | 113.84503 | 7558 ft | 287 kts | 332° |
| 2026-05-06 09:27 | 21.98590 | 113.83618 | 7266 ft | 286 kts | 332° |
| 2026-05-06 09:27 | 22.00389 | 113.82720 | 6983 ft | 285 kts | 333° |
| 2026-05-06 09:28 | 22.02225 | 113.81804 | 6686 ft | 284 kts | 332° |
| 2026-05-06 09:28 | 22.04001 | 113.80920 | 6396 ft | 283 kts | 332° |
| 2026-05-06 09:28 | 22.05784 | 113.80031 | 6101 ft | 282 kts | 333° |
| 2026-05-06 09:28 | 22.07561 | 113.79146 | 5799 ft | 281 kts | 333° |
| 2026-05-06 09:29 | 22.09330 | 113.78265 | 5515 ft | 280 kts | 333° |
| 2026-05-06 09:29 | 22.11100 | 113.77384 | 5226 ft | 279 kts | 333° |
| 2026-05-06 09:29 | 22.12868 | 113.76511 | 4929 ft | 279 kts | 333° |
| 2026-05-06 09:29 | 22.14623 | 113.75633 | 4645 ft | 278 kts | 333° |
| 2026-05-06 09:30 | 22.16358 | 113.74764 | 4456 ft | 269 kts | 333° |
| 2026-05-06 09:30 | 22.18011 | 113.73939 | 4254 ft | 259 kts | 333° |
| 2026-05-06 09:30 | 22.19593 | 113.73146 | 4048 ft | 244 kts | 333° |
| 2026-05-06 09:30 | 22.21104 | 113.72394 | 3786 ft | 228 kts | 333° |
| 2026-05-06 09:31 | 22.22534 | 113.71766 | 3489 ft | 217 kts | 345° |
| 2026-05-06 09:31 | 22.24026 | 113.71888 | 3222 ft | 219 kts | 27° |
| 2026-05-06 09:31 | 22.25248 | 113.72820 | 3030 ft | 215 kts | 43° |
| 2026-05-06 09:31 | 22.26367 | 113.73899 | 2877 ft | 216 kts | 44° |
| 2026-05-06 09:32 | 22.27472 | 113.74977 | 2727 ft | 203 kts | 45° |
| 2026-05-06 09:32 | 22.28273 | 113.76159 | 2481 ft | 191 kts | 68° |
| 2026-05-06 09:32 | 22.28681 | 113.77495 | 2160 ft | 184 kts | 77° |
| 2026-05-06 09:32 | 22.29089 | 113.78764 | 1942 ft | 174 kts | 73° |
| 2026-05-06 09:33 | 22.29496 | 113.79991 | 1762 ft | 167 kts | 73° |
| 2026-05-06 09:33 | 22.29883 | 113.81159 | 1448 ft | 162 kts | 74° |
| 2026-05-06 09:33 | 22.30252 | 113.82293 | 1184 ft | 156 kts | 75° |
| 2026-05-06 09:33 | 22.30601 | 113.83388 | 980 ft | 148 kts | 73° |
| 2026-05-06 09:34 | 22.30929 | 113.84411 | 806 ft | 143 kts | 71° |
| 2026-05-06 09:34 | 22.31256 | 113.85422 | 597 ft | 138 kts | 73° |
| 2026-05-06 09:34 | 22.31574 | 113.86399 | 369 ft | 135 kts | 71° |
| 2026-05-06 09:34 | 22.31882 | 113.87351 | 229 ft | 137 kts | 73° |
| 2026-05-06 09:35 | 22.32195 | 113.88334 | 90 ft | 137 kts | 72° |
| 2026-05-06 09:35 | 22.32502 | 113.89286 | 39 ft | 125 kts | 74° |
| 2026-05-06 09:35 | 22.32721 | 113.89987 | 38 ft | 59 kts | 71° |
| 2026-05-06 09:35 | 22.32807 | 113.90306 | 38 ft | 39 kts | 85° |
| 2026-05-06 09:36 | 22.32805 | 113.90510 | 39 ft | 14 kts | 102° |
| 2026-05-06 09:36 | 22.32741 | 113.90558 | 38 ft | 11 kts | 206° |
| 2026-05-06 09:36 | 22.32699 | 113.90474 | 38 ft | 14 kts | 250° |
| 2026-05-06 09:36 | 22.32662 | 113.90365 | 38 ft | 18 kts | 250° |
| 2026-05-06 09:37 | 22.32600 | 113.90290 | 38 ft | 8 kts | 180° |
| 2026-05-06 09:37 | 22.32539 | 113.90305 | 38 ft | 10 kts | 165° |
| 2026-05-06 09:37 | 22.32457 | 113.90336 | 38 ft | 15 kts | 160° |
| 2026-05-06 09:37 | 22.32335 | 113.90382 | 38 ft | 21 kts | 162° |
| 2026-05-06 09:38 | 22.32179 | 113.90441 | 38 ft | 26 kts | 160° |
| 2026-05-06 09:38 | 22.31990 | 113.90512 | 38 ft | 31 kts | 161° |
| 2026-05-06 09:38 | 22.31818 | 113.90574 | 38 ft | 23 kts | 162° |
| 2026-05-06 09:38 | 22.31670 | 113.90629 | 38 ft | 21 kts | 159° |
| 2026-05-06 09:39 | 22.31575 | 113.90699 | 38 ft | 10 kts | 101° |
| 2026-05-06 09:39 | 22.31588 | 113.90777 | 38 ft | 12 kts | 74° |
| 2026-05-06 09:39 | 22.31608 | 113.90843 | 38 ft | 14 kts | 71° |
| 2026-05-06 09:39 | 22.31641 | 113.90948 | 38 ft | 16 kts | 71° |
| 2026-05-06 09:40 | 22.31683 | 113.91072 | 38 ft | 19 kts | 69° |
| 2026-05-06 09:40 | 22.31728 | 113.91212 | 38 ft | 21 kts | 72° |
| 2026-05-06 09:40 | 22.31832 | 113.91546 | 38 ft | 25 kts | 71° |
| 2026-05-06 09:41 | 22.31891 | 113.91724 | 38 ft | 26 kts | 70° |
| 2026-05-06 09:41 | 22.31954 | 113.91917 | 38 ft | 28 kts | 70° |
| 2026-05-06 09:41 | 22.32019 | 113.92119 | 38 ft | 29 kts | 71° |
| 2026-05-06 09:41 | 22.32088 | 113.92332 | 38 ft | 31 kts | 71° |
| 2026-05-06 09:42 | 22.32160 | 113.92553 | 38 ft | 32 kts | 71° |
| 2026-05-06 09:42 | 22.32169 | 113.92685 | 38 ft | 9 kts | 136° |
| 2026-05-06 09:42 | 22.32103 | 113.92719 | 40 ft | 10 kts | 158° |
| 2026-05-06 09:42 | 22.32027 | 113.92748 | 40 ft | 13 kts | 161° |
| 2026-05-06 09:43 | 22.31926 | 113.92786 | 38 ft | 18 kts | 161° |
| 2026-05-06 09:43 | 22.31820 | 113.92826 | 38 ft | 13 kts | 176° |
| 2026-05-06 09:43 | 22.31771 | 113.92770 | 38 ft | 12 kts | 250° |
| 2026-05-06 09:43 | 22.31740 | 113.92676 | 38 ft | 15 kts | 250° |
| 2026-05-06 09:44 | 22.31703 | 113.92555 | 38 ft | 19 kts | 252° |
| 2026-05-06 09:44 | 22.31646 | 113.92479 | 38 ft | 6 kts | 181° |
| 2026-05-06 09:44 | 22.31612 | 113.92502 | 38 ft | 7 kts | 136° |
| 2026-05-06 09:44 | 22.31582 | 113.92554 | 38 ft | 10 kts | 114° |
| 2026-05-06 09:45 | 22.31551 | 113.92625 | 38 ft | 8 kts | 116° |
| 2026-05-06 09:45 | 22.31529 | 113.92667 | 38 ft | 4 kts | 133° |
| 2026-05-06 09:45 | 22.31496 | 113.92673 | 38 ft | 6 kts | 190° |
| 2026-05-06 09:45 | 22.31468 | 113.92660 | 38 ft | 4 kts | 207° |
| 2026-05-06 09:46 | 22.31442 | 113.92646 | 38 ft | 3 kts | 206° |
| 2026-05-06 09:46 | 22.31438 | 113.92644 | 38 ft | 0 kts | 206° |